THY96F LTFM-LTAU
Flight info
| Callsign | THY96F |
|---|---|
| Flight time | 1h 1m |
| Altitude | 37000 |
| Route | VICEN1H/18 VICEN UT57 VEVUD UT341 BAG UL614 MARTI UW76 SARIZ |
| Aircraft | A321/M-SDE3FGHIRWY/LB1 |
Departure
| Time | 2026-04-24 19:36 |
|---|---|
| Airport | İstanbul Airport (LTFM) |
Arrival
| Time | 2026-04-24 20:37 |
|---|---|
| Airport | Kayseri Erkilet International Airport (LTAU) |
| Time | Latitude | Longitude | Altitude | Speed | Heading |
|---|---|---|---|---|---|
| 2026-04-24 18:54 | 41.25739 | 28.74837 | 334 ft | 0 kts | 359° |
| 2026-04-24 19:21 | 41.25729 | 28.74837 | 334 ft | 3 kts | 359° |
| 2026-04-24 19:21 | 41.25705 | 28.74838 | 329 ft | 3 kts | 359° |
| 2026-04-24 19:22 | 41.25689 | 28.74838 | 330 ft | 3 kts | 359° |
| 2026-04-24 19:22 | 41.25661 | 28.74842 | 331 ft | 3 kts | 329° |
| 2026-04-24 19:22 | 41.25647 | 28.74863 | 334 ft | 3 kts | 284° |
| 2026-04-24 19:22 | 41.25644 | 28.74893 | 330 ft | 3 kts | 269° |
| 2026-04-24 19:23 | 41.25645 | 28.74925 | 333 ft | 3 kts | 269° |
| 2026-04-24 19:23 | 41.25645 | 28.74957 | 334 ft | 3 kts | 269° |
| 2026-04-24 19:23 | 41.25646 | 28.74988 | 330 ft | 3 kts | 271° |
| 2026-04-24 19:23 | 41.25642 | 28.75018 | 330 ft | 3 kts | 301° |
| 2026-04-24 19:24 | 41.25626 | 28.75039 | 330 ft | 3 kts | 339° |
| 2026-04-24 19:24 | 41.25612 | 28.75044 | 330 ft | 3 kts | 359° |
| 2026-04-24 19:24 | 41.25588 | 28.75044 | 330 ft | 3 kts | 359° |
| 2026-04-24 19:24 | 41.25580 | 28.75045 | 334 ft | 0 kts | 359° |
| 2026-04-24 19:27 | 41.25593 | 28.75044 | 331 ft | 3 kts | 359° |
| 2026-04-24 19:27 | 41.25619 | 28.75046 | 333 ft | 5 kts | 11° |
| 2026-04-24 19:27 | 41.25642 | 28.75084 | 330 ft | 6 kts | 68° |
| 2026-04-24 19:28 | 41.25647 | 28.75158 | 333 ft | 10 kts | 88° |
| 2026-04-24 19:28 | 41.25649 | 28.75259 | 332 ft | 12 kts | 89° |
| 2026-04-24 19:28 | 41.25653 | 28.75362 | 334 ft | 12 kts | 76° |
| 2026-04-24 19:28 | 41.25724 | 28.75404 | 334 ft | 13 kts | 358° |
| 2026-04-24 19:29 | 41.25922 | 28.75399 | 330 ft | 16 kts | 359° |
| 2026-04-24 19:29 | 41.26038 | 28.75397 | 332 ft | 17 kts | 358° |
| 2026-04-24 19:29 | 41.26164 | 28.75393 | 332 ft | 19 kts | 359° |
| 2026-04-24 19:30 | 41.26299 | 28.75390 | 333 ft | 20 kts | 359° |
| 2026-04-24 19:30 | 41.26444 | 28.75386 | 331 ft | 21 kts | 359° |
| 2026-04-24 19:30 | 41.26598 | 28.75383 | 334 ft | 23 kts | 359° |
| 2026-04-24 19:30 | 41.26758 | 28.75378 | 334 ft | 23 kts | 359° |
| 2026-04-24 19:31 | 41.26921 | 28.75374 | 333 ft | 24 kts | 359° |
| 2026-04-24 19:31 | 41.27089 | 28.75371 | 333 ft | 25 kts | 359° |
| 2026-04-24 19:31 | 41.27267 | 28.75369 | 332 ft | 26 kts | 359° |
| 2026-04-24 19:31 | 41.27440 | 28.75363 | 332 ft | 24 kts | 359° |
| 2026-04-24 19:32 | 41.27608 | 28.75358 | 331 ft | 24 kts | 359° |
| 2026-04-24 19:32 | 41.27751 | 28.75355 | 333 ft | 21 kts | 359° |
| 2026-04-24 19:32 | 41.27898 | 28.75353 | 331 ft | 22 kts | 359° |
| 2026-04-24 19:32 | 41.28054 | 28.75349 | 331 ft | 23 kts | 359° |
| 2026-04-24 19:33 | 41.28214 | 28.75345 | 331 ft | 23 kts | 359° |
| 2026-04-24 19:33 | 41.28374 | 28.75340 | 331 ft | 23 kts | 359° |
| 2026-04-24 19:33 | 41.28531 | 28.75337 | 334 ft | 21 kts | 359° |
| 2026-04-24 19:33 | 41.28679 | 28.75333 | 330 ft | 21 kts | 357° |
| 2026-04-24 19:34 | 41.28766 | 28.75330 | 332 ft | 10 kts | 359° |
| 2026-04-24 19:34 | 41.28818 | 28.75343 | 333 ft | 4 kts | 61° |
| 2026-04-24 19:34 | 41.28822 | 28.75394 | 332 ft | 7 kts | 91° |
| 2026-04-24 19:34 | 41.28821 | 28.75463 | 334 ft | 8 kts | 91° |
| 2026-04-24 19:35 | 41.28820 | 28.75549 | 334 ft | 10 kts | 91° |
| 2026-04-24 19:35 | 41.28804 | 28.75614 | 331 ft | 7 kts | 152° |
| 2026-04-24 19:35 | 41.28760 | 28.75620 | 334 ft | 2 kts | 180° |
| 2026-04-24 19:35 | 41.28754 | 28.75620 | 331 ft | 7 kts | 180° |
| 2026-04-24 19:36 | 41.28419 | 28.75624 | 334 ft | 87 kts | 179° |
| 2026-04-24 19:36 | 41.27579 | 28.75641 | 341 ft | 150 kts | 180° |
| 2026-04-24 19:36 | 41.26524 | 28.75650 | 1007 ft | 149 kts | 180° |
| 2026-04-24 19:36 | 41.25473 | 28.75733 | 1638 ft | 158 kts | 167° |
| 2026-04-24 19:37 | 41.24484 | 28.76555 | 1940 ft | 182 kts | 136° |
| 2026-04-24 19:37 | 41.23482 | 28.77706 | 2253 ft | 200 kts | 143° |
| 2026-04-24 19:37 | 41.22293 | 28.78873 | 2520 ft | 226 kts | 145° |
| 2026-04-24 19:37 | 41.20906 | 28.80114 | 2806 ft | 253 kts | 147° |
| 2026-04-24 19:38 | 41.19389 | 28.81411 | 3602 ft | 261 kts | 149° |
| 2026-04-24 19:38 | 41.17679 | 28.82250 | 4416 ft | 267 kts | 174° |
| 2026-04-24 19:38 | 41.15827 | 28.82229 | 5236 ft | 273 kts | 182° |
| 2026-04-24 19:38 | 41.13901 | 28.82100 | 6073 ft | 278 kts | 183° |
| 2026-04-24 19:39 | 41.11970 | 28.81961 | 6869 ft | 283 kts | 183° |
| 2026-04-24 19:39 | 41.09992 | 28.81825 | 7654 ft | 286 kts | 183° |
| 2026-04-24 19:39 | 41.07987 | 28.81691 | 8447 ft | 290 kts | 183° |
| 2026-04-24 19:39 | 41.05958 | 28.81556 | 9253 ft | 295 kts | 183° |
| 2026-04-24 19:40 | 41.03895 | 28.81419 | 10050 ft | 298 kts | 183° |
| 2026-04-24 19:40 | 41.01769 | 28.81282 | 10458 ft | 316 kts | 183° |
| 2026-04-24 19:40 | 40.99462 | 28.81136 | 10681 ft | 340 kts | 183° |
| 2026-04-24 19:40 | 40.97071 | 28.81000 | 11060 ft | 354 kts | 180° |
| 2026-04-24 19:41 | 40.94589 | 28.81249 | 11693 ft | 360 kts | 173° |
| 2026-04-24 19:41 | 40.92080 | 28.81642 | 12379 ft | 365 kts | 173° |
| 2026-04-24 19:41 | 40.89547 | 28.82037 | 13077 ft | 369 kts | 173° |
| 2026-04-24 19:41 | 40.86987 | 28.82435 | 13751 ft | 374 kts | 173° |
| 2026-04-24 19:42 | 40.84383 | 28.82844 | 14360 ft | 378 kts | 173° |
| 2026-04-24 19:42 | 40.81767 | 28.83256 | 15050 ft | 380 kts | 173° |
| 2026-04-24 19:42 | 40.79137 | 28.83664 | 15693 ft | 382 kts | 174° |
| 2026-04-24 19:42 | 40.76482 | 28.84075 | 16317 ft | 386 kts | 174° |
| 2026-04-24 19:43 | 40.73802 | 28.84489 | 16948 ft | 390 kts | 174° |
| 2026-04-24 19:43 | 40.71099 | 28.84903 | 17580 ft | 393 kts | 174° |
| 2026-04-24 19:43 | 40.68372 | 28.85367 | 18184 ft | 398 kts | 170° |
| 2026-04-24 19:43 | 40.65685 | 28.86347 | 18728 ft | 402 kts | 159° |
| 2026-04-24 19:44 | 40.63151 | 28.87927 | 19270 ft | 406 kts | 152° |
| 2026-04-24 19:44 | 40.60724 | 28.89842 | 19811 ft | 409 kts | 142° |
| 2026-04-24 19:44 | 40.58638 | 28.92389 | 20370 ft | 411 kts | 129° |
| 2026-04-24 19:44 | 40.57041 | 28.95498 | 20930 ft | 411 kts | 115° |
| 2026-04-24 19:45 | 40.56022 | 28.99014 | 21464 ft | 413 kts | 102° |
| 2026-04-24 19:45 | 40.55639 | 29.02738 | 22003 ft | 412 kts | 88° |
| 2026-04-24 19:45 | 40.55779 | 29.06506 | 22554 ft | 413 kts | 84° |
| 2026-04-24 19:45 | 40.55961 | 29.10286 | 23085 ft | 415 kts | 84° |
| 2026-04-24 19:46 | 40.56130 | 29.14082 | 23594 ft | 418 kts | 84° |
| 2026-04-24 19:46 | 40.56310 | 29.17897 | 24012 ft | 419 kts | 83° |
| 2026-04-24 19:46 | 40.56589 | 29.21726 | 24450 ft | 420 kts | 81° |
| 2026-04-24 19:46 | 40.56949 | 29.25539 | 24915 ft | 422 kts | 79° |
| 2026-04-24 19:47 | 40.57351 | 29.29374 | 25347 ft | 424 kts | 79° |
| 2026-04-24 19:47 | 40.57762 | 29.33214 | 25800 ft | 425 kts | 79° |
| 2026-04-24 19:47 | 40.58165 | 29.37076 | 26274 ft | 426 kts | 79° |
| 2026-04-24 19:47 | 40.58552 | 29.40940 | 26745 ft | 427 kts | 79° |
| 2026-04-24 19:48 | 40.58927 | 29.44823 | 27204 ft | 428 kts | 80° |
| 2026-04-24 19:48 | 40.59290 | 29.48721 | 27663 ft | 429 kts | 80° |
| 2026-04-24 19:48 | 40.60002 | 29.56539 | 28531 ft | 432 kts | 80° |
| 2026-04-24 19:49 | 40.60717 | 29.64410 | 29367 ft | 435 kts | 80° |
| 2026-04-24 19:49 | 40.61446 | 29.72336 | 30193 ft | 438 kts | 79° |
| 2026-04-24 19:50 | 40.62540 | 29.84276 | 31410 ft | 437 kts | 80° |
| 2026-04-24 19:50 | 40.62895 | 29.88262 | 31747 ft | 439 kts | 80° |
| 2026-04-24 19:51 | 40.63605 | 29.96246 | 32506 ft | 439 kts | 80° |
| 2026-04-24 19:51 | 40.63962 | 30.00249 | 32914 ft | 440 kts | 81° |
| 2026-04-24 19:52 | 40.64668 | 30.08248 | 33687 ft | 440 kts | 81° |
| 2026-04-24 19:52 | 40.65010 | 30.12200 | 34080 ft | 440 kts | 81° |
| 2026-04-24 19:52 | 40.65358 | 30.16208 | 34329 ft | 442 kts | 81° |
| 2026-04-24 19:52 | 40.65708 | 30.20240 | 34568 ft | 444 kts | 82° |
| 2026-04-24 19:53 | 40.65836 | 30.24311 | 34829 ft | 448 kts | 91° |
| 2026-04-24 19:53 | 40.65422 | 30.28387 | 35079 ft | 450 kts | 102° |
| 2026-04-24 19:53 | 40.62998 | 30.36026 | 35546 ft | 458 kts | 122° |
| 2026-04-24 19:54 | 40.61105 | 30.39408 | 35811 ft | 460 kts | 127° |
| 2026-04-24 19:54 | 40.59138 | 30.42743 | 36078 ft | 461 kts | 127° |
| 2026-04-24 19:54 | 40.57172 | 30.46076 | 36352 ft | 462 kts | 128° |
| 2026-04-24 19:54 | 40.55260 | 30.49460 | 36613 ft | 462 kts | 122° |
| 2026-04-24 19:55 | 40.54179 | 30.51877 | 36775 ft | 462 kts | 116° |
| 2026-04-24 19:55 | 40.52600 | 30.57124 | 37028 ft | 463 kts | 104° |
| 2026-04-24 19:55 | 40.51857 | 30.61241 | 37066 ft | 463 kts | 102° |
| 2026-04-24 19:56 | 40.50401 | 30.69484 | 37064 ft | 464 kts | 103° |
| 2026-04-24 19:56 | 40.48836 | 30.77698 | 37071 ft | 463 kts | 105° |
| 2026-04-24 19:57 | 40.46921 | 30.85776 | 37075 ft | 464 kts | 108° |
| 2026-04-24 19:57 | 40.44899 | 30.93818 | 37074 ft | 463 kts | 108° |
| 2026-04-24 19:58 | 40.42930 | 31.01878 | 37075 ft | 464 kts | 107° |
| 2026-04-24 19:58 | 40.41007 | 31.09965 | 37076 ft | 465 kts | 107° |
| 2026-04-24 19:59 | 40.39084 | 31.18062 | 37072 ft | 465 kts | 107° |
| 2026-04-24 19:59 | 40.37427 | 31.26258 | 37072 ft | 465 kts | 102° |
| 2026-04-24 20:00 | 40.36085 | 31.34555 | 37058 ft | 466 kts | 102° |
| 2026-04-24 20:00 | 40.34731 | 31.42880 | 37058 ft | 467 kts | 102° |
| 2026-04-24 20:01 | 40.33379 | 31.51182 | 37069 ft | 470 kts | 102° |
| 2026-04-24 20:01 | 40.32004 | 31.59544 | 37054 ft | 469 kts | 102° |
| 2026-04-24 20:02 | 40.30840 | 31.66544 | 37051 ft | 470 kts | 102° |
| 2026-04-24 20:02 | 40.29220 | 31.76286 | 37048 ft | 472 kts | 102° |
| 2026-04-24 20:03 | 40.27825 | 31.84695 | 37055 ft | 473 kts | 103° |
| 2026-04-24 20:03 | 40.26399 | 31.93111 | 37045 ft | 473 kts | 104° |
| 2026-04-24 20:04 | 40.24690 | 32.01443 | 37041 ft | 475 kts | 107° |
| 2026-04-24 20:04 | 40.22790 | 32.09727 | 37047 ft | 476 kts | 108° |
| 2026-04-24 20:05 | 40.20906 | 32.18049 | 37049 ft | 477 kts | 107° |
| 2026-04-24 20:05 | 40.19078 | 32.26408 | 37056 ft | 479 kts | 107° |
| 2026-04-24 20:06 | 40.17261 | 32.34780 | 37066 ft | 479 kts | 107° |
| 2026-04-24 20:06 | 40.15425 | 32.43171 | 37052 ft | 480 kts | 107° |
| 2026-04-24 20:07 | 40.13881 | 32.50146 | 37057 ft | 481 kts | 107° |
| 2026-04-24 20:07 | 40.11698 | 32.59945 | 37065 ft | 483 kts | 107° |
| 2026-04-24 20:08 | 40.09816 | 32.68375 | 37063 ft | 483 kts | 108° |
| 2026-04-24 20:08 | 40.07922 | 32.76813 | 37064 ft | 484 kts | 108° |
| 2026-04-24 20:09 | 40.05925 | 32.85191 | 37066 ft | 484 kts | 111° |
| 2026-04-24 20:09 | 40.03532 | 32.93369 | 37068 ft | 482 kts | 114° |
| 2026-04-24 20:10 | 40.00996 | 33.01482 | 37061 ft | 483 kts | 114° |
| 2026-04-24 20:10 | 39.98519 | 33.09648 | 37065 ft | 485 kts | 113° |
| 2026-04-24 20:11 | 39.96516 | 33.16475 | 37067 ft | 486 kts | 113° |
| 2026-04-24 20:11 | 39.94108 | 33.24701 | 37059 ft | 486 kts | 113° |
| 2026-04-24 20:12 | 39.91269 | 33.34260 | 37060 ft | 486 kts | 114° |
| 2026-04-24 20:12 | 39.89207 | 33.41136 | 37062 ft | 487 kts | 114° |
| 2026-04-24 20:13 | 39.86726 | 33.49360 | 37062 ft | 489 kts | 114° |
| 2026-04-24 20:13 | 39.84244 | 33.57591 | 37068 ft | 489 kts | 114° |
| 2026-04-24 20:14 | 39.82209 | 33.66031 | 37069 ft | 490 kts | 106° |
| 2026-04-24 20:14 | 39.80496 | 33.74592 | 37055 ft | 489 kts | 107° |
| 2026-04-24 20:15 | 39.78748 | 33.83139 | 37041 ft | 490 kts | 107° |
| 2026-04-24 20:15 | 39.76797 | 33.91621 | 36812 ft | 489 kts | 112° |
| 2026-04-24 20:15 | 39.75631 | 33.95767 | 36554 ft | 489 kts | 112° |
| 2026-04-24 20:16 | 39.74468 | 33.99871 | 36303 ft | 490 kts | 113° |
| 2026-04-24 20:16 | 39.73286 | 34.04021 | 36035 ft | 491 kts | 114° |
| 2026-04-24 20:16 | 39.72094 | 34.08192 | 35793 ft | 494 kts | 114° |
| 2026-04-24 20:16 | 39.70897 | 34.12377 | 35549 ft | 496 kts | 114° |
| 2026-04-24 20:17 | 39.69694 | 34.16581 | 35300 ft | 497 kts | 114° |
| 2026-04-24 20:17 | 39.67289 | 34.25007 | 34817 ft | 500 kts | 114° |
| 2026-04-24 20:17 | 39.66086 | 34.29242 | 34575 ft | 501 kts | 114° |
| 2026-04-24 20:18 | 39.65269 | 34.32115 | 34412 ft | 502 kts | 114° |
| 2026-04-24 20:18 | 39.63653 | 34.37763 | 34099 ft | 506 kts | 115° |
| 2026-04-24 20:18 | 39.62424 | 34.42050 | 33838 ft | 508 kts | 115° |
| 2026-04-24 20:18 | 39.61186 | 34.46355 | 33553 ft | 509 kts | 115° |
| 2026-04-24 20:19 | 39.59941 | 34.50663 | 33123 ft | 511 kts | 114° |
| 2026-04-24 20:19 | 39.58683 | 34.54996 | 32161 ft | 516 kts | 115° |
| 2026-04-24 20:19 | 39.57415 | 34.59357 | 31299 ft | 519 kts | 115° |
| 2026-04-24 20:19 | 39.56151 | 34.63721 | 30843 ft | 514 kts | 115° |
| 2026-04-24 20:20 | 39.54898 | 34.68053 | 30245 ft | 513 kts | 115° |
| 2026-04-24 20:20 | 39.53654 | 34.72359 | 29604 ft | 509 kts | 115° |
| 2026-04-24 20:20 | 39.52413 | 34.76631 | 29043 ft | 504 kts | 115° |
| 2026-04-24 20:20 | 39.51184 | 34.80844 | 28466 ft | 498 kts | 115° |
| 2026-04-24 20:21 | 39.49962 | 34.85011 | 27912 ft | 492 kts | 115° |
| 2026-04-24 20:21 | 39.48747 | 34.89141 | 27361 ft | 488 kts | 115° |
| 2026-04-24 20:21 | 39.47549 | 34.93221 | 26804 ft | 483 kts | 115° |
| 2026-04-24 20:21 | 39.46363 | 34.97269 | 26256 ft | 478 kts | 115° |
| 2026-04-24 20:22 | 39.45187 | 35.01266 | 25723 ft | 474 kts | 114° |
| 2026-04-24 20:22 | 39.44016 | 35.05235 | 25200 ft | 469 kts | 114° |
| 2026-04-24 20:22 | 39.42858 | 35.09157 | 24683 ft | 464 kts | 115° |
| 2026-04-24 20:22 | 39.41478 | 35.12874 | 24183 ft | 454 kts | 126° |
| 2026-04-24 20:23 | 39.39645 | 35.16129 | 23698 ft | 443 kts | 137° |
| 2026-04-24 20:23 | 39.37449 | 35.18840 | 23184 ft | 431 kts | 148° |
| 2026-04-24 20:23 | 39.35002 | 35.20948 | 22739 ft | 417 kts | 158° |
| 2026-04-24 20:23 | 39.32409 | 35.22503 | 22313 ft | 407 kts | 163° |
| 2026-04-24 20:24 | 39.29818 | 35.23913 | 21883 ft | 402 kts | 163° |
| 2026-04-24 20:24 | 39.27288 | 35.25290 | 21464 ft | 398 kts | 163° |
| 2026-04-24 20:24 | 39.24758 | 35.26672 | 21031 ft | 393 kts | 163° |
| 2026-04-24 20:24 | 39.22258 | 35.28040 | 20607 ft | 388 kts | 163° |
| 2026-04-24 20:25 | 39.19787 | 35.29390 | 20150 ft | 384 kts | 163° |
| 2026-04-24 20:25 | 39.17327 | 35.30724 | 19678 ft | 382 kts | 163° |
| 2026-04-24 20:25 | 39.14892 | 35.32037 | 19200 ft | 379 kts | 163° |
| 2026-04-24 20:25 | 39.12467 | 35.33343 | 18723 ft | 377 kts | 163° |
| 2026-04-24 20:26 | 39.10052 | 35.34643 | 18208 ft | 374 kts | 162° |
| 2026-04-24 20:26 | 39.07711 | 35.36059 | 17694 ft | 373 kts | 154° |
| 2026-04-24 20:26 | 39.05632 | 35.38069 | 17201 ft | 376 kts | 141° |
| 2026-04-24 20:26 | 39.03946 | 35.40648 | 16702 ft | 379 kts | 127° |
| 2026-04-24 20:27 | 39.02743 | 35.43676 | 16188 ft | 383 kts | 113° |
| 2026-04-24 20:27 | 39.01940 | 35.46928 | 15649 ft | 382 kts | 109° |
| 2026-04-24 20:27 | 39.01155 | 35.50198 | 15105 ft | 382 kts | 109° |
| 2026-04-24 20:27 | 39.00371 | 35.53443 | 14608 ft | 380 kts | 110° |
| 2026-04-24 20:28 | 38.99584 | 35.56683 | 14094 ft | 380 kts | 110° |
| 2026-04-24 20:28 | 38.98799 | 35.59933 | 13535 ft | 380 kts | 110° |
| 2026-04-24 20:28 | 38.98014 | 35.63164 | 13018 ft | 377 kts | 110° |
| 2026-04-24 20:28 | 38.97230 | 35.66371 | 12497 ft | 375 kts | 110° |
| 2026-04-24 20:29 | 38.96713 | 35.68484 | 12149 ft | 373 kts | 109° |
| 2026-04-24 20:29 | 38.95682 | 35.72708 | 11469 ft | 369 kts | 109° |
| 2026-04-24 20:29 | 38.94917 | 35.75846 | 10965 ft | 365 kts | 109° |
| 2026-04-24 20:29 | 38.94160 | 35.78946 | 10491 ft | 362 kts | 109° |
| 2026-04-24 20:30 | 38.93285 | 35.81900 | 10345 ft | 345 kts | 121° |
| 2026-04-24 20:30 | 38.91920 | 35.84321 | 10235 ft | 327 kts | 138° |
| 2026-04-24 20:30 | 38.90201 | 35.86096 | 10100 ft | 309 kts | 154° |
| 2026-04-24 20:30 | 38.88295 | 35.87185 | 9871 ft | 295 kts | 168° |
| 2026-04-24 20:31 | 38.86299 | 35.87430 | 9358 ft | 285 kts | 195° |
| 2026-04-24 20:31 | 38.84537 | 35.86481 | 8970 ft | 269 kts | 221° |
| 2026-04-24 20:31 | 38.83375 | 35.84736 | 8622 ft | 250 kts | 246° |
| 2026-04-24 20:31 | 38.82926 | 35.82668 | 8338 ft | 237 kts | 267° |
| 2026-04-24 20:32 | 38.82834 | 35.80566 | 8009 ft | 235 kts | 263° |
| 2026-04-24 20:32 | 38.82515 | 35.78536 | 7731 ft | 229 kts | 258° |
| 2026-04-24 20:32 | 38.82141 | 35.76587 | 7467 ft | 222 kts | 257° |
| 2026-04-24 20:32 | 38.81782 | 35.74687 | 7205 ft | 216 kts | 257° |
| 2026-04-24 20:33 | 38.81433 | 35.72823 | 6930 ft | 216 kts | 257° |
| 2026-04-24 20:33 | 38.81091 | 35.71015 | 6673 ft | 202 kts | 258° |
| 2026-04-24 20:33 | 38.80768 | 35.69294 | 6392 ft | 194 kts | 257° |
| 2026-04-24 20:33 | 38.80460 | 35.67665 | 6137 ft | 184 kts | 257° |
| 2026-04-24 20:34 | 38.80168 | 35.66102 | 5896 ft | 177 kts | 257° |
| 2026-04-24 20:34 | 38.79886 | 35.64594 | 5671 ft | 174 kts | 258° |
| 2026-04-24 20:34 | 38.79605 | 35.63103 | 5426 ft | 172 kts | 257° |
| 2026-04-24 20:34 | 38.79335 | 35.61670 | 5236 ft | 159 kts | 257° |
| 2026-04-24 20:35 | 38.79078 | 35.60340 | 4989 ft | 151 kts | 256° |
| 2026-04-24 20:35 | 38.78847 | 35.59041 | 4821 ft | 152 kts | 257° |
| 2026-04-24 20:35 | 38.78605 | 35.57728 | 4559 ft | 152 kts | 256° |
| 2026-04-24 20:35 | 38.78344 | 35.56424 | 4310 ft | 148 kts | 254° |
| 2026-04-24 20:36 | 38.78099 | 35.55147 | 4092 ft | 149 kts | 258° |
| 2026-04-24 20:36 | 38.77870 | 35.53868 | 3887 ft | 146 kts | 258° |
| 2026-04-24 20:36 | 38.77627 | 35.52596 | 3718 ft | 147 kts | 257° |
| 2026-04-24 20:36 | 38.77384 | 35.51322 | 3526 ft | 147 kts | 256° |
| 2026-04-24 20:37 | 38.77154 | 35.50114 | 3465 ft | 126 kts | 255° |
| 2026-04-24 20:37 | 38.76986 | 35.49232 | 3466 ft | 77 kts | 256° |
| 2026-04-24 20:37 | 38.76896 | 35.48772 | 3466 ft | 29 kts | 256° |
| 2026-04-24 20:37 | 38.76867 | 35.48636 | 3466 ft | 10 kts | 243° |
| 2026-04-24 20:38 | 38.76812 | 35.48625 | 3468 ft | 9 kts | 166° |
| 2026-04-24 20:38 | 38.76755 | 35.48642 | 3468 ft | 5 kts | 167° |
| 2026-04-24 20:38 | 38.76727 | 35.48631 | 3468 ft | 5 kts | 209° |
| 2026-04-24 20:38 | 38.76683 | 35.48631 | 3468 ft | 6 kts | 168° |
| 2026-04-24 20:39 | 38.76657 | 35.48638 | 3468 ft | 3 kts | 167° |
| 2026-04-24 20:39 | 38.76652 | 35.48640 | 3468 ft | 0 kts | 167° |